MV Causeway Supplier — ZR2426 — position and weather

sailwx.info

Track history (hours):
 
Tides and Currents Weather Stations Pressure Air Temp Water Temp Dewpoint Dewpoint Depression Visibility Wind Speed Wind Dir Waves Ship Positions

MV Causeway Supplier

Last reported at 2016-Aug-25 17:33 UTC. Time now 2016-Aug-25 18:29 UTC.
Position S 29°54' E 031°00'.

Length 22 m; draft 2.7 m.

Type: . MMSI: 601041200.

Date/timePositionNaut miles runAvg speedWind from/ knotsBaromVisibWave heightAir tempDewpointWater temp
2016-Aug-25 17:33S 29°54' E 031°00'0 0.0
2016-Aug-25 16:33S 29°54' E 031°00'0 0.0
2016-Aug-25 15:33S 29°54' E 031°00'0 0.0
2016-Aug-25 14:33S 29°54' E 031°00'0 0.0
2016-Aug-25 13:33S 29°54' E 031°00'0 0.0
2016-Aug-25 12:33S 29°54' E 031°00'0 0.0
2016-Aug-25 11:33S 29°54' E 031°00'0 0.0
2016-Aug-25 10:33S 29°54' E 031°00'2 1.7
2016-Aug-25 09:33S 29°52' E 031°01'2 2.0
2016-Aug-25 08:33S 29°53' E 031°03'2 2.4
2016-Aug-25 07:33S 29°54' E 031°00'  
2016-Aug-22 07:34S 29°52' E 031°01'0 0.1
2016-Aug-22 06:33S 29°52' E 031°01'5 4.9
2016-Aug-22 05:33S 29°51' E 031°06'1 1.4
2016-Aug-22 04:34S 29°51' E 031°08'6 6.2
2016-Aug-22 03:33S 29°52' E 031°01'2 2.0
2016-Aug-22 02:33S 29°54' E 031°00'  
2016-Aug-16 13:33S 29°52' E 031°02'5 5.4
2016-Aug-16 12:34S 29°54' E 031°08'1 0.5
2016-Aug-16 11:33S 29°53' E 031°08'1 0.7
2016-Aug-16 10:34S 29°53' E 031°09'1 0.6
2016-Aug-16 09:33S 29°52' E 031°09'1 0.6
2016-Aug-16 08:33S 29°52' E 031°09'1 1.3
2016-Aug-16 07:33S 29°51' E 031°08'6 2.1
2016-Aug-16 04:33S 29°52' E 031°01'2 2.0
2016-Aug-16 03:33S 29°54' E 031°00'0 0.0
2016-Aug-16 02:33S 29°54' E 031°00'0 0.0
2016-Aug-16 01:33S 29°54' E 031°00'0 0.0
2016-Aug-16 00:33S 29°54' E 031°00'0 0.0
2016-Aug-15 23:33S 29°54' E 031°00'  
Track history (hours):
 
Tides and Currents Weather Stations Pressure Air Temp Water Temp Dewpoint Dewpoint Depression Visibility Wind Speed Wind Dir Waves Ship Positions

MV Causeway Supplier

Last reported at 2016-Aug-25 17:33 UTC. Time now 2016-Aug-25 18:29 UTC.
Position S 29°54' E 031°00'.

Length 22 m; draft 2.7 m.

Type: . MMSI: 601041200.

Date/timePositionNaut miles runAvg speedWind from/ knotsBaromVisibWave heightAir tempDewpointWater temp
2016-Aug-25 17:33S 29°54' E 031°00'0 0.0
2016-Aug-25 16:33S 29°54' E 031°00'0 0.0
2016-Aug-25 15:33S 29°54' E 031°00'0 0.0
2016-Aug-25 14:33S 29°54' E 031°00'0 0.0
2016-Aug-25 13:33S 29°54' E 031°00'0 0.0
2016-Aug-25 12:33S 29°54' E 031°00'0 0.0
2016-Aug-25 11:33S 29°54' E 031°00'0 0.0
2016-Aug-25 10:33S 29°54' E 031°00'2 1.7
2016-Aug-25 09:33S 29°52' E 031°01'2 2.0
2016-Aug-25 08:33S 29°53' E 031°03'2 2.4
2016-Aug-25 07:33S 29°54' E 031°00'  
2016-Aug-22 07:34S 29°52' E 031°01'0 0.1
2016-Aug-22 06:33S 29°52' E 031°01'5 4.9
2016-Aug-22 05:33S 29°51' E 031°06'1 1.4
2016-Aug-22 04:34S 29°51' E 031°08'6 6.2
2016-Aug-22 03:33S 29°52' E 031°01'2 2.0
2016-Aug-22 02:33S 29°54' E 031°00'  
2016-Aug-16 13:33S 29°52' E 031°02'5 5.4
2016-Aug-16 12:34S 29°54' E 031°08'1 0.5
2016-Aug-16 11:33S 29°53' E 031°08'1 0.7
2016-Aug-16 10:34S 29°53' E 031°09'1 0.6
2016-Aug-16 09:33S 29°52' E 031°09'1 0.6
2016-Aug-16 08:33S 29°52' E 031°09'1 1.3
2016-Aug-16 07:33S 29°51' E 031°08'6 2.1
2016-Aug-16 04:33S 29°52' E 031°01'2 2.0
2016-Aug-16 03:33S 29°54' E 031°00'0 0.0
2016-Aug-16 02:33S 29°54' E 031°00'0 0.0
2016-Aug-16 01:33S 29°54' E 031°00'0 0.0
2016-Aug-16 00:33S 29°54' E 031°00'0 0.0
2016-Aug-15 23:33S 29°54' E 031°00'  

Dump ship's entire track history